Time;durP1;ratioP1;P1;durP2;ratioP2;P2;SDS_P1;SDS_P2;PMS_P1;PMS_P2;Temp;Humidity;BMP_temperature;BMP_pressure;BME280_temperature;BME280_humidity;BME280_pressure;Samples;Min_cycle;Max_cycle;Signal;HPM_P1;HPM_P2
2021/05/15 00:00:38;;;;;;;1.70;1.10;;;;;;;11.37;74.83;95615.00;5001203;28;20491;-89
2021/05/15 00:03:05;;;;;;;1.57;1.40;;;;;;;11.36;75.52;95616.28;5006357;28;20503;-90
2021/05/15 00:05:31;;;;;;;1.33;1.07;;;;;;;11.29;75.56;95617.09;5002233;28;20499;-90
2021/05/15 00:07:59;;;;;;;3.57;1.67;;;;;;;11.32;75.50;95620.66;5002375;28;20523;-91
2021/05/15 00:10:32;;;;;;;1.50;1.10;;;;;;;11.20;75.69;95607.69;5001491;28;20481;-93
2021/05/15 00:12:58;;;;;;;2.30;1.07;;;;;;;11.24;75.23;95610.00;4999910;28;20449;-93
2021/05/15 00:15:29;;;;;;;4.33;0.80;;;;;;;11.17;75.89;95610.81;5002340;28;20440;-92
2021/05/15 00:17:55;;;;;;;2.13;1.20;;;;;;;11.07;75.73;95605.34;5001321;28;20488;-93
2021/05/15 00:20:23;;;;;;;0.67;0.50;;;;;;;11.01;75.74;95607.59;5002802;28;20448;-91
2021/05/15 00:22:54;;;;;;;1.80;0.70;;;;;;;11.08;75.75;95598.69;5001399;28;20495;-90
2021/05/15 00:25:20;;;;;;;1.03;0.80;;;;;;;11.11;75.26;95602.97;5001861;28;20415;-90
2021/05/15 00:27:47;;;;;;;2.80;0.80;;;;;;;11.04;75.99;95594.97;5001617;28;20510;-92
2021/05/15 00:30:18;;;;;;;1.80;1.10;;;;;;;11.00;76.07;95602.75;5001026;28;20453;-90
2021/05/15 00:32:44;;;;;;;1.33;1.00;;;;;;;11.06;75.53;95595.81;5001442;28;20813;-90
2021/05/15 00:35:11;;;;;;;2.20;0.90;;;;;;;10.89;75.61;95606.69;5001638;28;20485;-90
2021/05/15 00:37:44;;;;;;;1.20;0.70;;;;;;;10.92;75.52;95602.16;5001015;28;20476;-94
2021/05/15 00:40:12;;;;;;;5.87;1.33;;;;;;;10.85;76.09;95603.69;5001930;28;20536;-91
2021/05/15 00:42:47;;;;;;;1.43;0.70;;;;;;;10.82;75.62;95601.38;5001805;28;20551;-92
2021/05/15 00:45:15;;;;;;;1.37;0.70;;;;;;;10.83;75.38;95602.81;5002838;28;20483;-93
2021/05/15 00:47:47;;;;;;;1.50;0.90;;;;;;;10.77;75.54;95594.97;5002562;28;20572;-91
2021/05/15 00:50:13;;;;;;;1.80;1.17;;;;;;;10.67;75.60;95584.13;5019474;28;20523;-89
2021/05/15 00:52:40;;;;;;;4.30;1.63;;;;;;;10.63;76.48;95586.50;5019409;28;20437;-91
2021/05/15 00:55:11;;;;;;;1.73;0.93;;;;;;;10.58;76.14;95582.09;5019464;28;20437;-93
2021/05/15 00:57:38;;;;;;;3.10;0.83;;;;;;;10.59;76.34;95582.78;5013575;28;20456;-92
2021/05/15 01:00:07;;;;;;;2.07;0.93;;;;;;;10.61;75.85;95582.97;5001071;28;20964;-88
2021/05/15 01:02:33;;;;;;;1.30;0.73;;;;;;;10.56;76.48;95581.91;4999686;28;20469;-87
2021/05/15 01:04:59;;;;;;;2.40;0.97;;;;;;;10.54;76.18;95576.38;4998832;28;20437;-87
2021/05/15 01:07:25;;;;;;;1.23;0.77;;;;;;;10.52;76.25;95578.94;4999540;28;20463;-88
2021/05/15 01:09:52;;;;;;;1.63;0.80;;;;;;;10.53;76.59;95583.03;4999543;28;20584;-87
2021/05/15 01:12:18;;;;;;;1.17;0.80;;;;;;;10.53;76.71;95580.34;4999478;28;21012;-87
2021/05/15 01:14:44;;;;;;;0.83;0.70;;;;;;;10.44;76.73;95574.88;4999721;28;20429;-88
2021/05/15 01:17:11;;;;;;;2.40;1.10;;;;;;;10.29;77.53;95581.19;4999041;28;20511;-87
2021/05/15 01:19:38;;;;;;;0.80;0.70;;;;;;;10.31;77.61;95578.63;4999428;28;20491;-88
2021/05/15 01:22:06;;;;;;;1.53;1.00;;;;;;;10.33;77.33;95588.88;5001119;28;20457;-89
2021/05/15 01:24:33;;;;;;;1.60;0.90;;;;;;;10.34;77.59;95582.22;5000864;28;20427;-89
2021/05/15 01:27:00;;;;;;;0.83;0.83;;;;;;;10.24;77.96;95584.84;5001102;28;20468;-88
2021/05/15 01:29:26;;;;;;;2.03;1.07;;;;;;;10.15;78.36;95583.47;5000439;28;20434;-89
2021/05/15 01:31:52;;;;;;;1.13;0.70;;;;;;;10.16;77.88;95581.50;5000415;28;20468;-89
2021/05/15 01:34:18;;;;;;;0.93;0.73;;;;;;;10.12;78.53;95589.97;5000767;28;20426;-88
2021/05/15 01:36:44;;;;;;;1.07;0.70;;;;;;;10.04;78.95;95580.53;5001034;28;20811;-87
2021/05/15 01:39:14;;;;;;;5.07;1.20;;;;;;;10.10;78.53;95579.03;5001058;28;20585;-89
2021/05/15 01:41:40;;;;;;;3.30;0.93;;;;;;;10.01;79.00;95579.66;5000447;28;20507;-88
2021/05/15 01:44:06;;;;;;;1.03;0.80;;;;;;;9.93;79.33;95575.63;4999085;28;20425;-87
2021/05/15 01:46:32;;;;;;;2.63;1.10;;;;;;;9.88;79.77;95584.63;4999950;28;20444;-89
2021/05/15 01:48:59;;;;;;;4.23;1.03;;;;;;;9.84;80.34;95589.69;5000388;28;20491;-88
2021/05/15 01:51:25;;;;;;;1.67;0.80;;;;;;;9.82;80.27;95586.84;4999958;28;20469;-88
2021/05/15 01:53:52;;;;;;;2.10;1.00;;;;;;;9.83;80.16;95583.63;4998890;28;20933;-88
2021/05/15 01:56:22;;;;;;;16.20;1.77;;;;;;;9.79;80.53;95585.28;5000250;28;20505;-88
2021/05/15 01:58:49;;;;;;;6.33;0.97;;;;;;;9.74;80.54;95583.53;5001600;28;20475;-88
2021/05/15 02:01:15;;;;;;;2.83;0.80;;;;;;;9.59;81.23;95581.66;4998938;28;20499;-88
2021/05/15 02:03:43;;;;;;;1.40;0.93;;;;;;;9.64;81.38;95573.38;5000082;28;20577;-88
2021/05/15 02:06:09;;;;;;;1.70;1.10;;;;;;;9.58;81.23;95578.28;5000532;28;20520;-88
2021/05/15 02:08:35;;;;;;;1.80;1.00;;;;;;;9.58;81.66;95570.22;4999742;28;20459;-88
2021/05/15 02:11:02;;;;;;;11.37;2.03;;;;;;;9.61;81.73;95573.78;5014181;28;20444;-87
2021/05/15 02:13:31;;;;;;;1.40;0.93;;;;;;;9.53;81.75;95573.09;5018317;28;20412;-88
2021/05/15 02:15:59;;;;;;;10.73;1.23;;;;;;;9.48;81.70;95574.06;5018425;28;20433;-88
2021/05/15 02:18:25;;;;;;;2.80;1.43;;;;;;;9.52;82.10;95569.69;5000402;28;20459;-89
2021/05/15 02:20:51;;;;;;;1.30;1.20;;;;;;;9.50;82.10;95563.44;5000702;28;20431;-89
2021/05/15 02:23:19;;;;;;;2.10;0.80;;;;;;;9.46;82.21;95560.44;5000632;28;20539;-89
2021/05/15 02:25:46;;;;;;;3.20;1.07;;;;;;;9.53;81.88;95559.63;5010469;28;20516;-88
2021/05/15 02:28:13;;;;;;;1.63;1.10;;;;;;;9.49;81.82;95562.72;5018137;28;20520;-87
2021/05/15 02:30:40;;;;;;;4.60;1.20;;;;;;;9.43;82.52;95556.84;5022050;28;20428;-87
2021/05/15 02:33:06;;;;;;;3.30;1.40;;;;;;;9.38;82.60;95552.41;5022241;28;20512;-88
2021/05/15 02:35:33;;;;;;;2.93;1.30;;;;;;;9.34;83.09;95541.31;5022112;28;20436;-88
2021/05/15 02:38:00;;;;;;;2.83;1.23;;;;;;;9.31;83.34;95547.81;5006353;28;20475;-88
2021/05/15 02:40:26;;;;;;;1.83;1.20;;;;;;;9.35;83.12;95542.75;5003786;28;20427;-87
2021/05/15 02:42:53;;;;;;;1.67;1.33;;;;;;;9.25;83.89;95541.94;5002406;28;20942;-87
2021/05/15 02:45:22;;;;;;;1.57;1.37;;;;;;;9.30;83.47;95529.53;5002203;28;20921;-87
2021/05/15 02:47:50;;;;;;;3.23;1.00;;;;;;;9.24;83.63;95534.41;5002718;28;20464;-87
2021/05/15 02:50:17;;;;;;;1.23;1.10;;;;;;;9.22;83.91;95534.97;5001528;28;20447;-87
2021/05/15 02:52:44;;;;;;;2.57;1.10;;;;;;;9.27;83.74;95536.69;5001385;28;20431;-87
2021/05/15 02:55:13;;;;;;;3.13;1.30;;;;;;;9.23;83.64;95538.38;5002608;28;20820;-87
2021/05/15 02:57:39;;;;;;;1.30;1.20;;;;;;;9.19;83.93;95532.66;5001475;28;20453;-87
2021/05/15 03:00:08;;;;;;;1.97;1.03;;;;;;;9.18;84.36;95531.94;5001801;28;20408;-87
2021/05/15 03:02:35;;;;;;;1.80;1.27;;;;;;;9.17;84.23;95527.13;5001963;28;20483;-87
2021/05/15 03:05:02;;;;;;;2.00;1.40;;;;;;;9.13;84.24;95533.59;5001721;28;20524;-86
2021/05/15 03:07:28;;;;;;;1.50;1.03;;;;;;;9.07;84.55;95532.41;5001725;28;20638;-87
2021/05/15 03:09:54;;;;;;;2.17;1.20;;;;;;;9.08;84.98;95529.13;5001978;28;20532;-86
2021/05/15 03:12:20;;;;;;;1.37;1.27;;;;;;;9.05;84.42;95527.56;5001710;28;20466;-87
2021/05/15 03:14:46;;;;;;;2.80;2.10;;;;;;;9.04;84.92;95522.72;5002391;28;20495;-87
2021/05/15 03:17:12;;;;;;;1.20;1.10;;;;;;;8.97;85.09;95526.91;5002368;28;20480;-86
2021/05/15 03:19:39;;;;;;;3.07;1.10;;;;;;;8.97;85.08;95534.25;5002482;28;20435;-87
2021/05/15 03:22:06;;;;;;;1.40;1.30;;;;;;;8.89;85.55;95522.84;5001807;28;20486;-87
2021/05/15 03:24:33;;;;;;;3.07;1.20;;;;;;;8.86;86.04;95524.66;5002288;28;20480;-87
2021/05/15 03:26:59;;;;;;;4.77;1.50;;;;;;;8.82;86.14;95531.66;5003262;28;20465;-87
2021/05/15 03:29:26;;;;;;;2.80;1.30;;;;;;;8.79;85.73;95533.50;5002174;28;20540;-87
2021/05/15 03:31:52;;;;;;;3.77;1.50;;;;;;;8.75;86.43;95522.38;5002228;28;20816;-87
2021/05/15 03:34:18;;;;;;;1.60;1.50;;;;;;;8.70;86.94;95528.72;5003336;28;20449;-87
2021/05/15 03:36:44;;;;;;;0.80;0.80;;;;;;;8.75;86.89;95535.13;5002847;28;20408;-88
2021/05/15 03:39:17;;;;;;;2.30;1.20;;;;;;;8.71;87.26;95526.75;5002559;28;20520;-88
2021/05/15 03:41:44;;;;;;;1.20;1.00;;;;;;;8.75;86.98;95516.28;5006216;28;20419;-86
2021/05/15 03:44:10;;;;;;;3.77;1.10;;;;;;;8.80;86.90;95526.13;5020729;28;20436;-88
2021/05/15 03:46:36;;;;;;;1.07;0.97;;;;;;;8.75;87.16;95527.06;5020754;28;20501;-88
2021/05/15 03:49:03;;;;;;;3.60;1.27;;;;;;;8.81;86.79;95530.97;5020852;28;20467;-87
2021/05/15 03:51:29;;;;;;;2.00;1.10;;;;;;;8.87;86.35;95528.75;5009090;28;20449;-87
2021/05/15 03:53:55;;;;;;;2.10;1.17;;;;;;;8.91;86.11;95533.75;5003603;28;20489;-86
2021/05/15 03:56:22;;;;;;;1.10;0.90;;;;;;;8.95;85.82;95526.03;5002946;28;20503;-87
2021/05/15 03:58:48;;;;;;;2.63;1.40;;;;;;;8.94;85.71;95528.00;5002426;28;21001;-85
2021/05/15 04:01:14;;;;;;;4.57;1.50;;;;;;;9.06;85.74;95528.25;5002021;28;20415;-86
2021/05/15 04:03:41;;;;;;;1.57;1.13;;;;;;;9.02;85.54;95527.97;5001523;28;20487;-87
2021/05/15 04:06:07;;;;;;;1.83;0.97;;;;;;;9.24;85.67;95529.72;5002174;28;20415;-86
2021/05/15 04:08:33;;;;;;;2.27;1.13;;;;;;;9.76;84.82;95529.81;5002058;28;20559;-86
2021/05/15 04:10:59;;;;;;;1.87;1.30;;;;;;;10.45;81.63;95527.78;5001759;28;20416;-87
2021/05/15 04:13:31;;;;;;;3.47;1.00;;;;;;;11.02;78.16;95527.34;5002392;28;20423;-86
2021/05/15 04:15:59;;;;;;;2.27;0.97;;;;;;;11.70;75.73;95534.34;5002818;28;20407;-86
2021/05/15 04:18:28;;;;;;;1.93;1.30;;;;;;;12.31;72.61;95536.59;5002248;28;20443;-87
2021/05/15 04:20:55;;;;;;;1.97;0.97;;;;;;;12.43;70.28;95529.34;5002320;28;20920;-87
2021/05/15 04:23:22;;;;;;;1.73;1.63;;;;;;;12.20;70.69;95524.38;5002387;28;20440;-86
2021/05/15 04:25:49;;;;;;;1.47;1.07;;;;;;;12.34;70.48;95538.88;5002490;28;20531;-87
2021/05/15 04:28:16;;;;;;;5.50;1.40;;;;;;;12.01;70.83;95537.19;5002780;28;20488;-87
2021/05/15 04:30:44;;;;;;;1.10;1.00;;;;;;;11.89;71.43;95539.75;5006080;28;20440;-85
2021/05/15 04:33:10;;;;;;;1.70;0.80;;;;;;;11.77;71.68;95533.50;5012552;28;20412;-88
2021/05/15 04:35:36;;;;;;;2.30;1.20;;;;;;;11.53;72.29;95529.72;5003407;28;20428;-86
2021/05/15 04:38:04;;;;;;;2.30;1.00;;;;;;;11.48;72.77;95519.94;5001510;28;20480;-86
2021/05/15 04:40:30;;;;;;;1.30;1.00;;;;;;;11.62;72.21;95515.53;5001351;28;20449;-86
2021/05/15 04:42:57;;;;;;;3.70;1.23;;;;;;;11.56;72.06;95519.81;5001120;28;20449;-86
2021/05/15 04:45:23;;;;;;;1.37;1.13;;;;;;;11.79;71.90;95537.06;5001014;28;20477;-86
2021/05/15 04:47:51;;;;;;;1.07;0.97;;;;;;;12.18;71.04;95545.91;5001345;28;20485;-86
2021/05/15 04:50:17;;;;;;;1.87;1.20;;;;;;;12.39;70.37;95542.59;5001770;28;20484;-87
2021/05/15 04:52:43;;;;;;;2.20;1.33;;;;;;;13.02;68.44;95549.56;5001238;28;20513;-87
2021/05/15 04:55:10;;;;;;;1.10;1.00;;;;;;;13.49;66.39;95548.66;5000832;28;20486;-86
2021/05/15 04:57:36;;;;;;;2.00;1.10;;;;;;;13.64;65.33;95556.41;5001207;28;20436;-87
2021/05/15 05:00:04;;;;;;;2.90;1.30;;;;;;;13.70;64.32;95556.78;5001312;28;20937;-88
2021/05/15 05:02:30;;;;;;;2.93;1.70;;;;;;;13.36;64.86;95554.56;5000745;28;20519;-88
2021/05/15 05:04:57;;;;;;;2.87;0.97;;;;;;;12.79;66.94;95548.06;5000970;28;20492;-88
2021/05/15 05:07:23;;;;;;;3.30;1.20;;;;;;;12.52;68.06;95544.84;5001666;28;20552;-87
2021/05/15 05:09:49;;;;;;;1.70;1.10;;;;;;;12.45;68.27;95545.72;5001005;28;20423;-87
2021/05/15 05:12:15;;;;;;;4.33;0.73;;;;;;;12.44;68.66;95544.28;4999940;28;20448;-88
2021/05/15 05:14:42;;;;;;;4.00;1.40;;;;;;;12.70;68.39;95546.09;5000990;28;20451;-88
2021/05/15 05:17:09;;;;;;;3.80;1.33;;;;;;;13.68;65.44;95548.53;5001389;28;20477;-86
2021/05/15 05:19:35;;;;;;;2.40;1.10;;;;;;;14.66;62.85;95550.59;5001235;28;20408;-86
2021/05/15 05:22:02;;;;;;;4.77;1.20;;;;;;;14.88;59.83;95553.94;5001128;28;20495;-87
2021/05/15 05:24:29;;;;;;;2.30;1.00;;;;;;;14.36;61.21;95554.19;5000373;28;20448;-86
2021/05/15 05:26:55;;;;;;;1.00;0.90;;;;;;;14.18;62.21;95553.03;5001570;28;20556;-87
2021/05/15 05:29:22;;;;;;;1.40;0.90;;;;;;;13.98;62.86;95547.03;5000854;28;20508;-86
2021/05/15 05:31:51;;;;;;;1.10;0.80;;;;;;;13.68;63.54;95553.25;5001340;28;20457;-87
2021/05/15 05:34:18;;;;;;;2.13;0.87;;;;;;;13.64;63.50;95542.13;5001850;28;20536;-87
2021/05/15 05:36:44;;;;;;;2.70;0.93;;;;;;;13.59;63.55;95543.88;5000935;28;20505;-87
2021/05/15 05:39:14;;;;;;;1.03;0.70;;;;;;;13.66;63.53;95544.97;5001778;28;20517;-88
2021/05/15 05:41:40;;;;;;;1.27;0.80;;;;;;;13.68;63.56;95537.69;5000710;28;20938;-87
2021/05/15 05:44:06;;;;;;;1.33;1.00;;;;;;;14.11;62.42;95543.06;5000287;28;20797;-88
2021/05/15 05:46:33;;;;;;;1.10;0.90;;;;;;;14.17;61.99;95535.31;5000909;28;20465;-89
2021/05/15 05:49:00;;;;;;;1.00;0.70;;;;;;;14.39;61.19;95550.28;5001387;28;20487;-88
2021/05/15 05:51:27;;;;;;;2.67;0.87;;;;;;;14.43;61.23;95543.13;5001431;28;20448;-87
2021/05/15 05:53:53;;;;;;;1.20;1.00;;;;;;;14.46;60.90;95541.22;5000576;28;20532;-87
2021/05/15 05:56:20;;;;;;;2.60;0.70;;;;;;;14.84;59.85;95542.84;5000551;28;20979;-87
2021/05/15 05:58:46;;;;;;;1.90;0.93;;;;;;;15.23;58.44;95545.81;4999499;28;20499;-87
2021/05/15 06:01:13;;;;;;;1.10;0.70;;;;;;;15.36;57.45;95545.94;4999809;28;20445;-86
2021/05/15 06:03:39;;;;;;;1.20;0.83;;;;;;;15.21;58.39;95543.00;5002306;28;20433;-86
2021/05/15 06:06:06;;;;;;;3.43;1.20;;;;;;;15.36;58.20;95535.06;5005226;28;20958;-87
2021/05/15 06:08:32;;;;;;;1.67;0.90;;;;;;;15.70;57.06;95530.19;5004621;28;20524;-87
2021/05/15 06:10:59;;;;;;;1.37;1.23;;;;;;;15.68;57.49;95532.81;5004422;28;20433;-86
2021/05/15 06:13:26;;;;;;;1.87;0.63;;;;;;;16.07;56.36;95530.91;5004814;28;20437;-87
2021/05/15 06:15:52;;;;;;;1.10;0.87;;;;;;;16.32;55.77;95536.38;5004619;28;20444;-88
2021/05/15 06:18:19;;;;;;;2.00;0.80;;;;;;;16.62;54.35;95542.78;5005538;28;20518;-87
2021/05/15 06:20:45;;;;;;;1.00;0.77;;;;;;;17.06;52.94;95534.19;5005203;28;20486;-88
2021/05/15 06:23:12;;;;;;;1.77;1.00;;;;;;;17.51;52.39;95537.13;5004882;28;20449;-89
2021/05/15 06:25:38;;;;;;;1.50;0.80;;;;;;;17.92;51.05;95537.13;5005587;28;20516;-88
2021/05/15 06:28:04;;;;;;;1.60;0.90;;;;;;;18.44;49.99;95536.16;5005772;28;20535;-88
2021/05/15 06:30:32;;;;;;;1.87;0.83;;;;;;;18.90;48.35;95536.88;5006950;28;20480;-87
2021/05/15 06:32:58;;;;;;;5.80;1.23;;;;;;;19.45;46.98;95540.00;5005631;28;20448;-86
2021/05/15 06:35:24;;;;;;;2.87;1.10;;;;;;;19.77;46.22;95544.06;5009725;28;20445;-87
2021/05/15 06:37:50;;;;;;;5.57;3.50;;;;;;;20.15;45.16;95537.41;5011811;28;20540;-88
2021/05/15 06:40:16;;;;;;;0.77;0.57;;;;;;;20.03;45.71;95528.69;5009585;28;20506;-87
2021/05/15 06:42:42;;;;;;;1.70;0.70;;;;;;;20.01;45.44;95534.09;5009831;28;20532;-87
2021/05/15 06:45:10;;;;;;;1.07;0.73;;;;;;;20.01;46.12;95525.88;5002655;28;20437;-87
2021/05/15 06:47:38;;;;;;;1.40;0.90;;;;;;;20.42;44.84;95527.50;5003631;28;20459;-87
2021/05/15 06:50:05;;;;;;;3.03;1.10;;;;;;;20.32;44.66;95522.31;5003858;28;20516;-87
2021/05/15 06:52:32;;;;;;;1.53;1.43;;;;;;;19.63;44.78;95524.31;5003099;28;20452;-86
2021/05/15 06:54:58;;;;;;;3.10;1.00;;;;;;;18.98;46.73;95527.00;5004686;28;20448;-88
2021/05/15 06:57:24;;;;;;;2.17;1.37;;;;;;;18.68;47.65;95514.72;5004645;28;20961;-88
2021/05/15 06:59:50;;;;;;;1.67;0.90;;;;;;;18.27;48.26;95514.16;5004036;28;20522;-88
2021/05/15 07:02:17;;;;;;;1.70;0.87;;;;;;;18.14;48.42;95519.06;5003575;28;20819;-87
2021/05/15 07:04:44;;;;;;;2.20;0.70;;;;;;;18.09;48.80;95512.00;5003253;28;20849;-89
2021/05/15 07:07:10;;;;;;;0.97;0.80;;;;;;;17.69;49.17;95504.63;5000511;28;20543;-88
2021/05/15 07:09:36;;;;;;;3.40;0.97;;;;;;;17.64;50.29;95506.44;4999698;28;20845;-88
2021/05/15 07:12:02;;;;;;;1.10;0.90;;;;;;;17.57;49.77;95512.22;5000158;28;20441;-87
2021/05/15 07:14:28;;;;;;;1.20;0.63;;;;;;;17.78;49.22;95506.44;4998627;28;20532;-88
2021/05/15 07:16:55;;;;;;;1.87;0.60;;;;;;;18.24;48.30;95513.38;5004638;28;20471;-89
2021/05/15 07:19:21;;;;;;;1.80;0.60;;;;;;;18.81;47.71;95513.22;5004535;28;20437;-90
2021/05/15 07:21:48;;;;;;;0.70;0.70;;;;;;;18.69;47.82;95508.66;5002119;28;20457;-90
2021/05/15 07:24:14;;;;;;;3.33;0.80;;;;;;;18.63;48.55;95507.66;5002533;28;20888;-89
2021/05/15 07:26:40;;;;;;;1.20;0.67;;;;;;;18.58;47.62;95509.50;5003239;28;20471;-88
2021/05/15 07:29:06;;;;;;;3.57;1.23;;;;;;;18.45;48.35;95510.25;5002033;28;20566;-89
2021/05/15 07:31:32;;;;;;;0.90;0.70;;;;;;;18.05;49.21;95511.81;5000492;28;20536;-90
2021/05/15 07:33:59;;;;;;;3.27;0.70;;;;;;;17.85;49.25;95505.41;5001195;28;20433;-88
2021/05/15 07:36:25;;;;;;;2.50;1.17;;;;;;;17.55;49.57;95501.19;5000720;28;20803;-90
2021/05/15 07:38:52;;;;;;;1.37;0.80;;;;;;;17.22;50.71;95496.16;5002331;28;20500;-89
2021/05/15 07:41:19;;;;;;;12.23;1.57;;;;;;;17.04;51.13;95493.19;5002555;28;21225;-88
2021/05/15 07:43:45;;;;;;;2.20;1.03;;;;;;;16.53;52.44;95500.06;5007113;28;20497;-90
2021/05/15 07:46:11;;;;;;;1.87;0.60;;;;;;;16.69;51.97;95490.03;5007562;28;20453;-86
2021/05/15 07:48:40;;;;;;;5.13;1.20;;;;;;;16.58;52.85;95479.91;5004093;28;20503;-90
2021/05/15 07:51:11;;;;;;;1.70;0.90;;;;;;;16.58;52.87;95493.53;5006169;28;20448;-87
2021/05/15 07:53:37;;;;;;;3.80;1.07;;;;;;;16.48;52.49;95479.34;5000943;28;20453;-87
2021/05/15 07:56:06;;;;;;;2.63;0.87;;;;;;;16.54;53.14;95485.84;5000886;28;20851;-88
2021/05/15 07:58:32;;;;;;;1.33;0.83;;;;;;;16.58;53.21;95477.88;5001271;28;20461;-88
2021/05/15 08:00:59;;;;;;;1.80;0.90;;;;;;;16.67;52.83;95481.75;5000608;28;20488;-88
2021/05/15 08:03:25;;;;;;;2.87;1.67;;;;;;;16.57;53.45;95487.38;5001843;28;20781;-88
2021/05/15 08:05:51;;;;;;;1.77;0.80;;;;;;;16.71;52.79;95487.41;5002468;28;20579;-87
2021/05/15 08:08:18;;;;;;;1.10;0.73;;;;;;;16.60;52.86;95488.88;5001163;28;20501;-87
2021/05/15 08:10:44;;;;;;;6.20;1.30;;;;;;;16.57;52.66;95483.94;5002294;28;20453;-87
2021/05/15 08:13:11;;;;;;;1.10;1.00;;;;;;;16.52;52.87;95490.47;5003570;28;20532;-88
2021/05/15 08:15:37;;;;;;;3.80;1.33;;;;;;;16.44;52.87;95484.59;5000845;28;20503;-89
2021/05/15 08:18:03;;;;;;;2.30;1.33;;;;;;;16.57;52.65;95490.09;5003244;28;20905;-89
2021/05/15 08:20:29;;;;;;;1.50;0.90;;;;;;;16.57;53.07;95487.38;5003172;28;20456;-88
2021/05/15 08:22:56;;;;;;;1.93;1.07;;;;;;;16.54;52.48;95487.81;5011190;28;20465;-88
2021/05/15 08:25:40;;;;;;;3.17;1.30;;;;;;;16.47;52.43;95488.84;5018366;28;20486;-90
2021/05/15 08:28:10;;;;;;;1.87;1.00;;;;;;;16.31;53.49;95479.81;5017676;28;20513;-88
2021/05/15 08:30:37;;;;;;;1.83;0.63;;;;;;;16.33;53.79;95493.53;5007209;28;20482;-90
2021/05/15 08:33:04;;;;;;;3.40;1.00;;;;;;;16.20;53.42;95488.72;5003676;28;20444;-91
2021/05/15 08:35:31;;;;;;;1.20;0.97;;;;;;;16.08;53.49;95486.78;5003112;28;20433;-88
2021/05/15 08:37:57;;;;;;;5.40;0.97;;;;;;;16.06;53.38;95486.69;5002725;28;20496;-88
2021/05/15 08:40:25;;;;;;;2.43;0.83;;;;;;;16.09;53.44;95484.75;5001680;28;20480;-88
2021/05/15 08:42:53;;;;;;;1.43;1.17;;;;;;;16.19;53.14;95479.16;5002296;28;20465;-88
2021/05/15 08:45:21;;;;;;;2.57;0.70;;;;;;;16.14;53.54;95477.50;5002324;28;20437;-87
2021/05/15 08:47:49;;;;;;;1.10;0.80;;;;;;;16.30;53.30;95472.94;5003616;28;20560;-87
2021/05/15 08:50:17;;;;;;;5.43;0.97;;;;;;;16.13;53.51;95463.22;5002169;28;20543;-88
2021/05/15 08:52:46;;;;;;;1.80;0.90;;;;;;;16.11;53.97;95465.09;5009677;28;20492;-87
2021/05/15 08:55:14;;;;;;;3.60;0.90;;;;;;;16.19;54.54;95473.72;5013199;28;20846;-88
2021/05/15 08:57:41;;;;;;;13.70;1.80;;;;;;;16.33;53.88;95469.00;5001313;28;20496;-88
2021/05/15 09:00:12;;;;;;;2.97;1.07;;;;;;;16.12;53.49;95463.81;5000166;28;20449;-88
2021/05/15 09:02:39;;;;;;;1.60;0.90;;;;;;;16.04;53.52;95459.34;5001276;28;20445;-88
2021/05/15 09:05:09;;;;;;;3.23;1.20;;;;;;;16.11;53.74;95465.81;5000366;28;20484;-87
2021/05/15 09:07:36;;;;;;;2.10;0.80;;;;;;;16.06;54.01;95464.19;5001683;28;20472;-87
2021/05/15 09:10:03;;;;;;;2.70;1.27;;;;;;;16.13;53.92;95471.38;5001186;28;20457;-88
2021/05/15 09:12:30;;;;;;;5.23;0.90;;;;;;;16.26;53.22;95467.28;4997607;28;20469;-88
2021/05/15 09:14:58;;;;;;;0.90;0.80;;;;;;;16.16;54.01;95456.56;5000701;28;20472;-87
2021/05/15 09:17:25;;;;;;;0.97;0.70;;;;;;;16.23;53.49;95460.31;5000149;28;20829;-88
2021/05/15 09:19:53;;;;;;;1.20;0.70;;;;;;;16.24;53.55;95462.44;4998824;28;20433;-88
2021/05/15 09:22:25;;;;;;;1.63;1.00;;;;;;;16.22;53.39;95459.63;4999159;28;20452;-87
2021/05/15 09:24:51;;;;;;;0.80;0.80;;;;;;;16.41;53.32;95453.13;4999624;28;20773;-88
2021/05/15 09:27:18;;;;;;;2.80;1.17;;;;;;;16.74;52.68;95455.50;4999553;28;20468;-88
2021/05/15 09:29:46;;;;;;;1.70;1.13;;;;;;;16.95;51.93;95457.94;5000053;28;20468;-88
2021/05/15 09:32:12;;;;;;;2.50;1.07;;;;;;;16.93;51.57;95450.41;5008344;28;20489;-86
2021/05/15 09:34:46;;;;;;;1.90;0.90;;;;;;;17.08;51.29;95454.53;5007324;28;20513;-88
2021/05/15 09:37:14;;;;;;;1.10;0.70;;;;;;;17.30;50.84;95449.47;5008699;28;20531;-89
2021/05/15 09:39:43;;;;;;;1.07;0.90;;;;;;;17.51;50.34;95443.69;5005039;28;20455;-88
2021/05/15 09:42:09;;;;;;;2.83;1.00;;;;;;;17.39;49.79;95437.63;5001637;28;20457;-87
2021/05/15 09:44:38;;;;;;;2.00;1.10;;;;;;;17.49;50.17;95432.66;4999484;28;20451;-90
2021/05/15 09:47:08;;;;;;;6.00;1.10;;;;;;;17.57;49.97;95436.50;5000669;28;20970;-86
2021/05/15 09:49:35;;;;;;;8.17;1.20;;;;;;;17.36;50.77;95425.94;4999637;28;20496;-86
2021/05/15 09:52:04;;;;;;;2.10;1.07;;;;;;;17.64;50.41;95432.06;4997307;28;20495;-89
2021/05/15 09:54:32;;;;;;;0.97;0.87;;;;;;;17.87;50.16;95428.34;4997793;28;20532;-87
2021/05/15 09:57:01;;;;;;;2.90;1.43;;;;;;;18.26;49.05;95417.19;4999793;28;20540;-88
2021/05/15 09:59:29;;;;;;;2.83;1.20;;;;;;;18.10;48.47;95411.69;5001367;28;20468;-88
2021/05/15 10:02:00;;;;;;;3.47;1.07;;;;;;;17.86;49.22;95411.25;5002396;28;20512;-89
2021/05/15 10:04:28;;;;;;;1.67;0.83;;;;;;;17.73;50.37;95409.28;5003750;28;20440;-89
2021/05/15 10:06:56;;;;;;;2.20;1.50;;;;;;;17.61;50.70;95408.72;5003076;28;20445;-89
2021/05/15 10:09:30;;;;;;;1.57;0.80;;;;;;;17.43;49.98;95399.66;5003002;28;20501;-89
2021/05/15 10:11:56;;;;;;;2.00;1.00;;;;;;;17.25;50.08;95398.78;5003294;28;20527;-89
2021/05/15 10:14:23;;;;;;;1.33;0.60;;;;;;;17.27;50.61;95390.69;5000347;28;20546;-89
2021/05/15 10:16:50;;;;;;;2.60;1.00;;;;;;;17.34;50.80;95400.59;5002677;28;20485;-89
2021/05/15 10:19:17;;;;;;;6.57;1.50;;;;;;;17.31;52.76;95399.06;5002864;28;20440;-88
2021/05/15 10:21:44;;;;;;;2.97;0.93;;;;;;;17.00;54.76;95388.72;5001803;28;20541;-89
2021/05/15 10:24:21;;;;;;;1.83;0.70;;;;;;;17.04;55.43;95392.34;5001116;28;20472;-89
2021/05/15 10:26:54;;;;;;;3.00;0.90;;;;;;;17.07;55.79;95382.94;5002449;28;20449;-89
2021/05/15 10:29:21;;;;;;;3.70;1.23;;;;;;;17.06;52.97;95380.84;5015616;28;20457;-88
2021/05/15 10:31:53;;;;;;;2.63;1.00;;;;;;;16.90;53.26;95369.84;5016347;28;20453;-89
2021/05/15 10:34:31;;;;;;;2.47;1.00;;;;;;;16.90;52.53;95367.13;5016456;28;20524;-88
2021/05/15 10:36:57;;;;;;;3.30;1.13;;;;;;;16.86;52.89;95361.47;5014475;28;20496;-89
2021/05/15 10:39:27;;;;;;;3.43;1.00;;;;;;;16.98;52.56;95362.06;5001707;28;20493;-89
2021/05/15 10:41:54;;;;;;;1.70;0.93;;;;;;;17.22;52.14;95361.81;5001639;28;20453;-90
2021/05/15 10:44:20;;;;;;;1.40;0.90;;;;;;;17.38;51.31;95360.59;5001169;28;20512;-89
2021/05/15 10:46:49;;;;;;;5.60;1.17;;;;;;;17.77;49.85;95354.91;5002227;28;20531;-90
2021/05/15 10:49:21;;;;;;;2.90;0.93;;;;;;;18.01;48.96;95349.84;5001709;28;20590;-90
2021/05/15 10:51:49;;;;;;;1.30;0.83;;;;;;;17.96;49.43;95346.22;5004365;28;20472;-89
2021/05/15 10:54:29;;;;;;;4.70;1.33;;;;;;;18.20;48.24;95330.91;5004336;28;20961;-90
2021/05/15 10:57:01;;;;;;;2.43;1.20;;;;;;;17.98;48.27;95340.16;5005786;28;20444;-90
2021/05/15 10:59:27;;;;;;;2.47;1.03;;;;;;;17.91;48.71;95338.47;5006405;28;20484;-90
2021/05/15 11:01:55;;;;;;;3.10;1.17;;;;;;;17.91;51.78;95336.44;5012503;28;20480;-90
2021/05/15 11:04:24;;;;;;;5.30;1.30;;;;;;;17.70;54.27;95339.56;5008349;28;20957;-92
2021/05/15 11:07:08;;;;;;;2.40;1.30;;;;;;;17.55;54.51;95330.03;5008387;28;20448;-92
2021/05/15 11:09:37;;;;;;;5.33;1.13;;;;;;;17.55;53.31;95321.13;5004321;28;20480;-91
2021/05/15 11:12:14;;;;;;;4.20;1.50;;;;;;;17.48;52.54;95325.56;5003736;28;20496;-90
2021/05/15 11:14:42;;;;;;;2.87;1.07;;;;;;;17.43;50.70;95320.56;5002795;28;20448;-85
2021/05/15 11:17:15;;;;;;;3.00;1.13;;;;;;;17.36;50.48;95318.84;5001992;28;20469;-88
2021/05/15 11:19:49;;;;;;;4.13;1.47;;;;;;;17.27;50.66;95317.78;5003718;28;20536;-87
2021/05/15 11:22:15;;;;;;;1.50;1.00;;;;;;;17.26;49.92;95332.72;5002683;28;20579;-87
2021/05/15 11:24:54;;;;;;;1.80;1.10;;;;;;;17.04;49.90;95318.06;5004037;28;20476;-87
2021/05/15 11:27:24;;;;;;;2.03;1.20;;;;;;;16.89;49.55;95319.38;5011486;28;20468;-93
2021/05/15 11:30:13;;;;;;;2.87;1.07;;;;;;;17.06;48.97;95318.13;5011274;28;20477;-91
2021/05/15 11:32:40;;;;;;;4.87;1.10;;;;;;;16.82;48.57;95312.22;5005764;28;20449;-91
2021/05/15 11:35:09;;;;;;;3.10;1.10;;;;;;;16.82;48.74;95311.53;5003131;28;20441;-86